sensor_id;sensor_type;location;lat;lon;timestamp;temperature;humidity
44855;DHT22;30591;48.228;16.398;2023-04-23T00:01:27;11.20;99.90
44855;DHT22;30591;48.228;16.398;2023-04-23T00:03:57;11.20;99.90
44855;DHT22;30591;48.228;16.398;2023-04-23T00:06:25;11.20;99.90
44855;DHT22;30591;48.228;16.398;2023-04-23T00:08:53;11.10;99.90
44855;DHT22;30591;48.228;16.398;2023-04-23T00:11:21;11.10;99.90
44855;DHT22;30591;48.228;16.398;2023-04-23T00:13:49;11.10;99.90
44855;DHT22;30591;48.228;16.398;2023-04-23T00:16:18;11.00;99.90
44855;DHT22;30591;48.228;16.398;2023-04-23T00:18:46;11.10;99.90
44855;DHT22;30591;48.228;16.398;2023-04-23T00:21:14;11.10;99.90
44855;DHT22;30591;48.228;16.398;2023-04-23T00:23:41;11.00;99.90
44855;DHT22;30591;48.228;16.398;2023-04-23T00:26:09;11.10;99.90
44855;DHT22;30591;48.228;16.398;2023-04-23T00:28:36;11.10;99.90
44855;DHT22;30591;48.228;16.398;2023-04-23T00:31:03;11.00;99.90
44855;DHT22;30591;48.228;16.398;2023-04-23T00:33:31;11.00;99.90
44855;DHT22;30591;48.228;16.398;2023-04-23T00:35:58;11.00;99.90
44855;DHT22;30591;48.228;16.398;2023-04-23T00:38:26;11.00;99.90
44855;DHT22;30591;48.228;16.398;2023-04-23T00:40:53;11.00;99.90
44855;DHT22;30591;48.228;16.398;2023-04-23T00:43:21;11.00;99.90
44855;DHT22;30591;48.228;16.398;2023-04-23T00:45:48;10.90;99.90
44855;DHT22;30591;48.228;16.398;2023-04-23T00:48:17;10.90;99.90
44855;DHT22;30591;48.228;16.398;2023-04-23T00:50:45;10.90;99.90
44855;DHT22;30591;48.228;16.398;2023-04-23T00:53:12;10.90;99.90
44855;DHT22;30591;48.228;16.398;2023-04-23T00:55:40;10.90;99.90
44855;DHT22;30591;48.228;16.398;2023-04-23T00:58:08;11.00;99.90
44855;DHT22;30591;48.228;16.398;2023-04-23T01:00:41;11.00;99.90
44855;DHT22;30591;48.228;16.398;2023-04-23T01:03:12;10.80;99.90
44855;DHT22;30591;48.228;16.398;2023-04-23T01:05:41;10.80;99.90
44855;DHT22;30591;48.228;16.398;2023-04-23T01:08:13;10.80;99.90
44855;DHT22;30591;48.228;16.398;2023-04-23T01:10:43;10.80;99.90
44855;DHT22;30591;48.228;16.398;2023-04-23T01:13:15;10.80;99.90
44855;DHT22;30591;48.228;16.398;2023-04-23T01:15:43;10.80;99.90
44855;DHT22;30591;48.228;16.398;2023-04-23T01:18:11;10.70;99.90
44855;DHT22;30591;48.228;16.398;2023-04-23T01:20:39;10.80;99.90
44855;DHT22;30591;48.228;16.398;2023-04-23T01:23:06;10.70;99.90
44855;DHT22;30591;48.228;16.398;2023-04-23T01:25:34;10.50;99.90
44855;DHT22;30591;48.228;16.398;2023-04-23T01:28:02;10.50;99.90
44855;DHT22;30591;48.228;16.398;2023-04-23T01:30:31;10.50;99.90
44855;DHT22;30591;48.228;16.398;2023-04-23T01:33:01;10.60;99.90
44855;DHT22;30591;48.228;16.398;2023-04-23T01:35:29;10.50;99.90
44855;DHT22;30591;48.228;16.398;2023-04-23T01:37:58;10.50;99.90
44855;DHT22;30591;48.228;16.398;2023-04-23T01:40:27;10.40;99.90
44855;DHT22;30591;48.228;16.398;2023-04-23T01:42:55;10.40;99.90
44855;DHT22;30591;48.228;16.398;2023-04-23T01:45:23;10.30;99.90
44855;DHT22;30591;48.228;16.398;2023-04-23T01:47:52;10.30;99.90
44855;DHT22;30591;48.228;16.398;2023-04-23T01:50:19;10.30;99.90
44855;DHT22;30591;48.228;16.398;2023-04-23T01:52:50;10.30;99.90
44855;DHT22;30591;48.228;16.398;2023-04-23T01:55:19;10.20;99.90
44855;DHT22;30591;48.228;16.398;2023-04-23T01:57:47;10.20;99.90
44855;DHT22;30591;48.228;16.398;2023-04-23T02:00:14;10.10;99.90
44855;DHT22;30591;48.228;16.398;2023-04-23T02:02:43;10.20;99.90
44855;DHT22;30591;48.228;16.398;2023-04-23T02:05:15;10.10;99.90
44855;DHT22;30591;48.228;16.398;2023-04-23T02:07:44;10.20;99.90
44855;DHT22;30591;48.228;16.398;2023-04-23T02:10:14;10.30;99.90
44855;DHT22;30591;48.228;16.398;2023-04-23T02:12:43;10.30;99.90
44855;DHT22;30591;48.228;16.398;2023-04-23T02:15:11;10.20;99.90
44855;DHT22;30591;48.228;16.398;2023-04-23T02:17:39;10.10;99.90
44855;DHT22;30591;48.228;16.398;2023-04-23T02:20:08;10.10;99.90
44855;DHT22;30591;48.228;16.398;2023-04-23T02:22:37;10.10;99.90
44855;DHT22;30591;48.228;16.398;2023-04-23T02:25:06;10.00;99.90
44855;DHT22;30591;48.228;16.398;2023-04-23T02:27:34;9.90;99.90
44855;DHT22;30591;48.228;16.398;2023-04-23T02:30:03;9.80;99.90
44855;DHT22;30591;48.228;16.398;2023-04-23T02:32:30;9.80;99.90
44855;DHT22;30591;48.228;16.398;2023-04-23T02:34:57;9.90;99.90
44855;DHT22;30591;48.228;16.398;2023-04-23T02:37:25;9.80;99.90
44855;DHT22;30591;48.228;16.398;2023-04-23T02:39:53;9.80;99.90
44855;DHT22;30591;48.228;16.398;2023-04-23T02:42:20;9.70;99.90
44855;DHT22;30591;48.228;16.398;2023-04-23T02:44:48;9.70;99.90
44855;DHT22;30591;48.228;16.398;2023-04-23T02:47:15;9.60;99.90
44855;DHT22;30591;48.228;16.398;2023-04-23T02:49:42;9.50;99.90
44855;DHT22;30591;48.228;16.398;2023-04-23T02:52:10;9.40;99.90
44855;DHT22;30591;48.228;16.398;2023-04-23T02:54:37;9.40;99.90
44855;DHT22;30591;48.228;16.398;2023-04-23T02:57:05;9.50;99.90
44855;DHT22;30591;48.228;16.398;2023-04-23T02:59:34;9.50;99.90
44855;DHT22;30591;48.228;16.398;2023-04-23T03:02:01;9.40;99.90
44855;DHT22;30591;48.228;16.398;2023-04-23T03:04:29;9.50;99.90
44855;DHT22;30591;48.228;16.398;2023-04-23T03:06:57;9.50;99.90
44855;DHT22;30591;48.228;16.398;2023-04-23T03:09:24;9.40;99.90
44855;DHT22;30591;48.228;16.398;2023-04-23T03:11:51;9.40;99.90
44855;DHT22;30591;48.228;16.398;2023-04-23T03:14:19;9.30;99.90
44855;DHT22;30591;48.228;16.398;2023-04-23T03:16:46;9.30;99.90
44855;DHT22;30591;48.228;16.398;2023-04-23T03:19:15;9.30;99.90
44855;DHT22;30591;48.228;16.398;2023-04-23T03:21:42;9.20;99.90
44855;DHT22;30591;48.228;16.398;2023-04-23T03:24:12;9.20;99.90
44855;DHT22;30591;48.228;16.398;2023-04-23T03:26:41;9.10;99.90
44855;DHT22;30591;48.228;16.398;2023-04-23T03:29:08;9.00;99.90
44855;DHT22;30591;48.228;16.398;2023-04-23T03:31:37;9.00;99.90
44855;DHT22;30591;48.228;16.398;2023-04-23T03:34:08;9.00;99.90
44855;DHT22;30591;48.228;16.398;2023-04-23T03:36:37;9.00;99.90
44855;DHT22;30591;48.228;16.398;2023-04-23T03:39:05;9.00;99.90
44855;DHT22;30591;48.228;16.398;2023-04-23T03:41:45;8.80;99.90
44855;DHT22;30591;48.228;16.398;2023-04-23T03:44:15;8.90;99.90
44855;DHT22;30591;48.228;16.398;2023-04-23T03:46:44;8.80;99.90
44855;DHT22;30591;48.228;16.398;2023-04-23T03:49:14;8.70;99.90
44855;DHT22;30591;48.228;16.398;2023-04-23T03:51:42;8.80;99.90
44855;DHT22;30591;48.228;16.398;2023-04-23T03:54:10;8.70;99.90
44855;DHT22;30591;48.228;16.398;2023-04-23T03:56:58;8.60;99.90
44855;DHT22;30591;48.228;16.398;2023-04-23T03:59:28;8.60;99.90
44855;DHT22;30591;48.228;16.398;2023-04-23T04:01:58;8.60;99.90
44855;DHT22;30591;48.228;16.398;2023-04-23T04:04:26;8.70;99.90
44855;DHT22;30591;48.228;16.398;2023-04-23T04:06:56;8.50;99.90
44855;DHT22;30591;48.228;16.398;2023-04-23T04:09:27;8.60;99.90
44855;DHT22;30591;48.228;16.398;2023-04-23T04:11:59;8.50;99.90
44855;DHT22;30591;48.228;16.398;2023-04-23T04:14:27;8.50;99.90
44855;DHT22;30591;48.228;16.398;2023-04-23T04:16:54;8.40;99.90
44855;DHT22;30591;48.228;16.398;2023-04-23T04:19:23;8.40;99.90
44855;DHT22;30591;48.228;16.398;2023-04-23T04:21:51;8.50;99.90
44855;DHT22;30591;48.228;16.398;2023-04-23T04:24:18;8.50;99.90
44855;DHT22;30591;48.228;16.398;2023-04-23T04:26:45;8.50;99.90
44855;DHT22;30591;48.228;16.398;2023-04-23T04:29:13;8.50;99.90
44855;DHT22;30591;48.228;16.398;2023-04-23T04:31:41;8.60;99.90
44855;DHT22;30591;48.228;16.398;2023-04-23T04:34:08;8.70;99.90
44855;DHT22;30591;48.228;16.398;2023-04-23T04:36:36;8.70;99.90
44855;DHT22;30591;48.228;16.398;2023-04-23T04:39:03;8.70;99.90
44855;DHT22;30591;48.228;16.398;2023-04-23T04:41:31;8.70;99.90
44855;DHT22;30591;48.228;16.398;2023-04-23T04:43:58;8.80;99.90
44855;DHT22;30591;48.228;16.398;2023-04-23T04:46:26;8.80;99.90
44855;DHT22;30591;48.228;16.398;2023-04-23T04:48:55;8.90;99.90
44855;DHT22;30591;48.228;16.398;2023-04-23T04:51:22;9.00;99.90
44855;DHT22;30591;48.228;16.398;2023-04-23T04:53:49;9.10;99.90
44855;DHT22;30591;48.228;16.398;2023-04-23T04:56:17;9.30;99.90
44855;DHT22;30591;48.228;16.398;2023-04-23T04:58:44;9.30;99.90
44855;DHT22;30591;48.228;16.398;2023-04-23T05:01:11;9.50;99.90
44855;DHT22;30591;48.228;16.398;2023-04-23T05:03:39;9.70;99.90
44855;DHT22;30591;48.228;16.398;2023-04-23T05:06:07;9.80;99.90
44855;DHT22;30591;48.228;16.398;2023-04-23T05:08:34;10.10;99.90
44855;DHT22;30591;48.228;16.398;2023-04-23T05:11:01;10.10;99.90
44855;DHT22;30591;48.228;16.398;2023-04-23T05:13:29;10.20;99.90
44855;DHT22;30591;48.228;16.398;2023-04-23T05:15:57;10.30;99.90
44855;DHT22;30591;48.228;16.398;2023-04-23T05:18:24;10.40;99.90
44855;DHT22;30591;48.228;16.398;2023-04-23T05:20:52;10.50;99.90
44855;DHT22;30591;48.228;16.398;2023-04-23T05:23:19;10.70;99.90
44855;DHT22;30591;48.228;16.398;2023-04-23T05:25:46;10.70;99.90
44855;DHT22;30591;48.228;16.398;2023-04-23T05:28:14;10.80;99.90
44855;DHT22;30591;48.228;16.398;2023-04-23T05:30:41;11.00;99.90
44855;DHT22;30591;48.228;16.398;2023-04-23T05:33:09;11.00;99.90
44855;DHT22;30591;48.228;16.398;2023-04-23T05:35:38;11.10;99.90
44855;DHT22;30591;48.228;16.398;2023-04-23T05:38:06;11.20;99.90
44855;DHT22;30591;48.228;16.398;2023-04-23T05:40:33;11.20;99.90
44855;DHT22;30591;48.228;16.398;2023-04-23T05:43:01;11.20;99.90
44855;DHT22;30591;48.228;16.398;2023-04-23T05:45:28;11.30;99.90
44855;DHT22;30591;48.228;16.398;2023-04-23T05:47:55;11.40;99.90
44855;DHT22;30591;48.228;16.398;2023-04-23T05:50:23;11.50;99.90
44855;DHT22;30591;48.228;16.398;2023-04-23T05:52:50;11.60;99.90
44855;DHT22;30591;48.228;16.398;2023-04-23T05:55:18;11.70;99.90
44855;DHT22;30591;48.228;16.398;2023-04-23T05:57:46;11.90;99.90
44855;DHT22;30591;48.228;16.398;2023-04-23T06:00:14;11.90;99.90
44855;DHT22;30591;48.228;16.398;2023-04-23T06:02:41;12.20;99.90
44855;DHT22;30591;48.228;16.398;2023-04-23T06:05:09;12.30;99.90
44855;DHT22;30591;48.228;16.398;2023-04-23T06:07:38;12.30;99.90
44855;DHT22;30591;48.228;16.398;2023-04-23T06:10:06;12.50;99.90
44855;DHT22;30591;48.228;16.398;2023-04-23T06:12:33;12.50;99.90
44855;DHT22;30591;48.228;16.398;2023-04-23T06:15:08;12.70;99.90
44855;DHT22;30591;48.228;16.398;2023-04-23T06:17:36;12.90;99.90
44855;DHT22;30591;48.228;16.398;2023-04-23T06:20:05;12.90;99.90
44855;DHT22;30591;48.228;16.398;2023-04-23T06:22:33;13.10;99.90
44855;DHT22;30591;48.228;16.398;2023-04-23T06:25:00;13.20;99.90
44855;DHT22;30591;48.228;16.398;2023-04-23T06:27:27;13.30;99.90
44855;DHT22;30591;48.228;16.398;2023-04-23T06:30:01;13.50;99.90
44855;DHT22;30591;48.228;16.398;2023-04-23T06:32:28;13.70;99.90
44855;DHT22;30591;48.228;16.398;2023-04-23T06:34:56;13.60;99.90
44855;DHT22;30591;48.228;16.398;2023-04-23T06:37:28;13.60;99.90
44855;DHT22;30591;48.228;16.398;2023-04-23T06:39:58;13.60;99.90
44855;DHT22;30591;48.228;16.398;2023-04-23T06:42:26;13.80;99.90
44855;DHT22;30591;48.228;16.398;2023-04-23T06:45:11;14.00;99.90
44855;DHT22;30591;48.228;16.398;2023-04-23T06:47:39;14.10;99.90
44855;DHT22;30591;48.228;16.398;2023-04-23T06:50:07;14.20;99.90
44855;DHT22;30591;48.228;16.398;2023-04-23T06:52:35;14.40;99.90
44855;DHT22;30591;48.228;16.398;2023-04-23T06:55:03;14.30;99.90
44855;DHT22;30591;48.228;16.398;2023-04-23T06:57:30;14.20;99.90
44855;DHT22;30591;48.228;16.398;2023-04-23T06:59:58;14.40;99.90
44855;DHT22;30591;48.228;16.398;2023-04-23T07:02:31;14.40;99.90
44855;DHT22;30591;48.228;16.398;2023-04-23T07:04:58;14.60;99.90
44855;DHT22;30591;48.228;16.398;2023-04-23T07:07:25;14.70;99.90
44855;DHT22;30591;48.228;16.398;2023-04-23T07:09:53;15.10;99.90
44855;DHT22;30591;48.228;16.398;2023-04-23T07:12:20;14.90;99.90
44855;DHT22;30591;48.228;16.398;2023-04-23T07:14:47;15.00;99.90
44855;DHT22;30591;48.228;16.398;2023-04-23T07:17:15;15.00;99.90
44855;DHT22;30591;48.228;16.398;2023-04-23T07:19:42;15.10;99.90
44855;DHT22;30591;48.228;16.398;2023-04-23T07:22:09;15.20;99.90
44855;DHT22;30591;48.228;16.398;2023-04-23T07:24:37;15.00;99.90
44855;DHT22;30591;48.228;16.398;2023-04-23T07:27:05;15.00;99.90
44855;DHT22;30591;48.228;16.398;2023-04-23T07:29:33;15.20;99.90
44855;DHT22;30591;48.228;16.398;2023-04-23T07:32:01;15.40;99.70
44855;DHT22;30591;48.228;16.398;2023-04-23T07:34:28;15.60;99.90
44855;DHT22;30591;48.228;16.398;2023-04-23T07:36:55;15.50;99.90
44855;DHT22;30591;48.228;16.398;2023-04-23T07:39:23;15.70;99.90
44855;DHT22;30591;48.228;16.398;2023-04-23T07:41:50;15.80;99.90
44855;DHT22;30591;48.228;16.398;2023-04-23T07:44:17;15.90;99.90
44855;DHT22;30591;48.228;16.398;2023-04-23T07:46:45;15.90;99.90
44855;DHT22;30591;48.228;16.398;2023-04-23T07:49:12;16.10;99.90
44855;DHT22;30591;48.228;16.398;2023-04-23T07:51:40;16.20;99.90
44855;DHT22;30591;48.228;16.398;2023-04-23T07:54:08;16.20;99.90
44855;DHT22;30591;48.228;16.398;2023-04-23T07:56:35;16.30;99.10
44855;DHT22;30591;48.228;16.398;2023-04-23T07:59:03;16.40;99.50
44855;DHT22;30591;48.228;16.398;2023-04-23T08:01:32;16.30;99.90
44855;DHT22;30591;48.228;16.398;2023-04-23T08:04:00;16.50;98.70
44855;DHT22;30591;48.228;16.398;2023-04-23T08:06:29;16.70;99.70
44855;DHT22;30591;48.228;16.398;2023-04-23T08:08:57;16.60;99.60
44855;DHT22;30591;48.228;16.398;2023-04-23T08:11:24;16.70;99.10
44855;DHT22;30591;48.228;16.398;2023-04-23T08:13:51;16.60;98.80
44855;DHT22;30591;48.228;16.398;2023-04-23T08:16:20;16.80;99.60
44855;DHT22;30591;48.228;16.398;2023-04-23T08:18:47;17.10;98.40
44855;DHT22;30591;48.228;16.398;2023-04-23T08:21:31;17.20;98.70
44855;DHT22;30591;48.228;16.398;2023-04-23T08:23:58;17.20;98.70
44855;DHT22;30591;48.228;16.398;2023-04-23T08:26:26;17.30;98.60
44855;DHT22;30591;48.228;16.398;2023-04-23T08:28:53;17.10;98.60
44855;DHT22;30591;48.228;16.398;2023-04-23T08:31:20;17.30;97.40
44855;DHT22;30591;48.228;16.398;2023-04-23T08:33:54;17.30;98.30
44855;DHT22;30591;48.228;16.398;2023-04-23T08:36:21;17.40;98.20
44855;DHT22;30591;48.228;16.398;2023-04-23T08:38:49;17.60;97.90
44855;DHT22;30591;48.228;16.398;2023-04-23T08:41:18;17.70;98.50
44855;DHT22;30591;48.228;16.398;2023-04-23T08:44:27;17.50;98.10
44855;DHT22;30591;48.228;16.398;2023-04-23T08:46:57;17.60;98.90
44855;DHT22;30591;48.228;16.398;2023-04-23T08:49:32;18.10;98.70
44855;DHT22;30591;48.228;16.398;2023-04-23T08:52:14;18.10;96.70
44855;DHT22;30591;48.228;16.398;2023-04-23T08:54:46;18.20;97.60
44855;DHT22;30591;48.228;16.398;2023-04-23T08:57:15;18.40;96.90
44855;DHT22;30591;48.228;16.398;2023-04-23T08:59:44;18.70;96.60
44855;DHT22;30591;48.228;16.398;2023-04-23T09:02:13;18.70;96.30
44855;DHT22;30591;48.228;16.398;2023-04-23T09:04:44;18.70;98.20
44855;DHT22;30591;48.228;16.398;2023-04-23T09:07:15;18.50;95.60
44855;DHT22;30591;48.228;16.398;2023-04-23T09:09:43;18.90;95.40
44855;DHT22;30591;48.228;16.398;2023-04-23T09:12:11;18.70;95.40
44855;DHT22;30591;48.228;16.398;2023-04-23T09:14:38;18.60;95.60
44855;DHT22;30591;48.228;16.398;2023-04-23T09:17:06;19.10;95.50
44855;DHT22;30591;48.228;16.398;2023-04-23T09:19:34;19.10;94.90
44855;DHT22;30591;48.228;16.398;2023-04-23T09:22:02;19.30;95.40
44855;DHT22;30591;48.228;16.398;2023-04-23T09:24:30;19.40;94.60
44855;DHT22;30591;48.228;16.398;2023-04-23T09:26:57;19.10;95.60
44855;DHT22;30591;48.228;16.398;2023-04-23T09:29:25;19.10;95.90
44855;DHT22;30591;48.228;16.398;2023-04-23T09:31:54;19.20;94.10
44855;DHT22;30591;48.228;16.398;2023-04-23T09:34:24;19.40;93.70
44855;DHT22;30591;48.228;16.398;2023-04-23T09:36:52;19.10;95.50
44855;DHT22;30591;48.228;16.398;2023-04-23T09:39:23;18.80;95.20
44855;DHT22;30591;48.228;16.398;2023-04-23T09:41:51;18.90;95.70
44855;DHT22;30591;48.228;16.398;2023-04-23T09:44:20;18.60;97.00
44855;DHT22;30591;48.228;16.398;2023-04-23T09:46:49;18.90;94.10
44855;DHT22;30591;48.228;16.398;2023-04-23T09:49:17;19.30;94.20
44855;DHT22;30591;48.228;16.398;2023-04-23T09:51:48;19.80;94.30
44855;DHT22;30591;48.228;16.398;2023-04-23T09:54:20;19.30;94.40
44855;DHT22;30591;48.228;16.398;2023-04-23T09:56:49;19.60;94.00
44855;DHT22;30591;48.228;16.398;2023-04-23T09:59:25;19.50;93.80
44855;DHT22;30591;48.228;16.398;2023-04-23T10:02:13;20.10;94.20
44855;DHT22;30591;48.228;16.398;2023-04-23T10:04:41;20.40;93.30
44855;DHT22;30591;48.228;16.398;2023-04-23T10:07:09;20.50;96.40
44855;DHT22;30591;48.228;16.398;2023-04-23T10:09:42;20.50;95.10
44855;DHT22;30591;48.228;16.398;2023-04-23T10:12:10;20.70;94.30
44855;DHT22;30591;48.228;16.398;2023-04-23T10:14:59;20.40;94.20
44855;DHT22;30591;48.228;16.398;2023-04-23T10:17:27;20.10;95.10
44855;DHT22;30591;48.228;16.398;2023-04-23T10:19:54;20.00;94.60
44855;DHT22;30591;48.228;16.398;2023-04-23T10:22:23;20.20;95.80
44855;DHT22;30591;48.228;16.398;2023-04-23T10:24:52;20.50;93.30
44855;DHT22;30591;48.228;16.398;2023-04-23T10:27:26;20.60;93.40
44855;DHT22;30591;48.228;16.398;2023-04-23T10:30:14;21.00;93.30
44855;DHT22;30591;48.228;16.398;2023-04-23T10:32:42;20.90;93.50
44855;DHT22;30591;48.228;16.398;2023-04-23T10:35:10;20.50;93.90
44855;DHT22;30591;48.228;16.398;2023-04-23T10:37:37;20.90;93.70
44855;DHT22;30591;48.228;16.398;2023-04-23T10:40:11;20.70;92.70
44855;DHT22;30591;48.228;16.398;2023-04-23T10:42:42;20.80;93.30
44855;DHT22;30591;48.228;16.398;2023-04-23T10:45:17;20.80;95.10
44855;DHT22;30591;48.228;16.398;2023-04-23T10:47:54;21.10;92.60
44855;DHT22;30591;48.228;16.398;2023-04-23T10:50:26;21.70;93.80
44855;DHT22;30591;48.228;16.398;2023-04-23T10:52:54;21.80;92.40
44855;DHT22;30591;48.228;16.398;2023-04-23T10:55:26;22.00;93.10
44855;DHT22;30591;48.228;16.398;2023-04-23T10:58:04;21.90;90.80
44855;DHT22;30591;48.228;16.398;2023-04-23T11:06:01;21.50;91.90
44855;DHT22;30591;48.228;16.398;2023-04-23T11:08:29;21.80;91.90
44855;DHT22;30591;48.228;16.398;2023-04-23T11:11:01;22.10;91.40
44855;DHT22;30591;48.228;16.398;2023-04-23T11:13:33;22.50;92.40
44855;DHT22;30591;48.228;16.398;2023-04-23T11:16:16;22.80;93.00
44855;DHT22;30591;48.228;16.398;2023-04-23T11:19:02;22.80;93.20
44855;DHT22;30591;48.228;16.398;2023-04-23T11:21:57;23.30;90.90
44855;DHT22;30591;48.228;16.398;2023-04-23T11:26:59;22.80;90.70
44855;DHT22;30591;48.228;16.398;2023-04-23T11:29:27;22.90;88.90
44855;DHT22;30591;48.228;16.398;2023-04-23T11:31:56;23.00;90.70
44855;DHT22;30591;48.228;16.398;2023-04-23T11:34:31;22.90;90.30
44855;DHT22;30591;48.228;16.398;2023-04-23T11:37:01;23.20;89.50
44855;DHT22;30591;48.228;16.398;2023-04-23T11:39:28;23.20;85.90
44855;DHT22;30591;48.228;16.398;2023-04-23T11:41:56;23.00;89.50
44855;DHT22;30591;48.228;16.398;2023-04-23T11:44:25;23.10;86.10
44855;DHT22;30591;48.228;16.398;2023-04-23T11:46:52;23.10;86.40
44855;DHT22;30591;48.228;16.398;2023-04-23T11:49:20;23.90;83.80
44855;DHT22;30591;48.228;16.398;2023-04-23T11:51:47;23.70;84.70
44855;DHT22;30591;48.228;16.398;2023-04-23T11:54:15;24.00;84.70
44855;DHT22;30591;48.228;16.398;2023-04-23T11:56:42;24.00;88.00
44855;DHT22;30591;48.228;16.398;2023-04-23T11:59:10;23.90;87.70
44855;DHT22;30591;48.228;16.398;2023-04-23T12:01:53;24.80;85.00
44855;DHT22;30591;48.228;16.398;2023-04-23T12:04:22;24.40;85.70
44855;DHT22;30591;48.228;16.398;2023-04-23T12:06:52;23.50;82.80
44855;DHT22;30591;48.228;16.398;2023-04-23T12:09:25;23.80;86.20
44855;DHT22;30591;48.228;16.398;2023-04-23T12:11:55;23.80;86.20
44855;DHT22;30591;48.228;16.398;2023-04-23T12:14:27;23.70;84.50
44855;DHT22;30591;48.228;16.398;2023-04-23T12:16:55;24.00;85.60
44855;DHT22;30591;48.228;16.398;2023-04-23T12:19:28;24.10;87.00
44855;DHT22;30591;48.228;16.398;2023-04-23T12:22:00;24.00;86.10
44855;DHT22;30591;48.228;16.398;2023-04-23T12:24:48;24.10;87.10
44855;DHT22;30591;48.228;16.398;2023-04-23T12:27:21;23.80;85.70
44855;DHT22;30591;48.228;16.398;2023-04-23T12:29:59;23.40;87.90
44855;DHT22;30591;48.228;16.398;2023-04-23T12:32:26;23.30;88.00
44855;DHT22;30591;48.228;16.398;2023-04-23T12:34:55;23.20;86.10
44855;DHT22;30591;48.228;16.398;2023-04-23T12:37:29;23.40;85.80
44855;DHT22;30591;48.228;16.398;2023-04-23T12:39:57;24.30;83.30
44855;DHT22;30591;48.228;16.398;2023-04-23T12:42:25;24.90;81.50
44855;DHT22;30591;48.228;16.398;2023-04-23T12:44:53;25.40;82.70
44855;DHT22;30591;48.228;16.398;2023-04-23T12:47:23;25.30;76.30
44855;DHT22;30591;48.228;16.398;2023-04-23T12:49:50;25.30;80.50
44855;DHT22;30591;48.228;16.398;2023-04-23T12:52:20;25.10;83.20
44855;DHT22;30591;48.228;16.398;2023-04-23T12:54:47;24.30;83.50
44855;DHT22;30591;48.228;16.398;2023-04-23T12:57:19;24.20;82.30
44855;DHT22;30591;48.228;16.398;2023-04-23T12:59:50;23.70;85.00
44855;DHT22;30591;48.228;16.398;2023-04-23T13:02:17;23.70;78.40
44855;DHT22;30591;48.228;16.398;2023-04-23T13:04:45;23.50;78.70
44855;DHT22;30591;48.228;16.398;2023-04-23T13:07:13;23.40;84.60
44855;DHT22;30591;48.228;16.398;2023-04-23T13:09:40;23.60;84.10
44855;DHT22;30591;48.228;16.398;2023-04-23T13:12:08;24.10;83.10
44855;DHT22;30591;48.228;16.398;2023-04-23T13:14:37;24.40;82.70
44855;DHT22;30591;48.228;16.398;2023-04-23T13:17:04;24.00;84.00
44855;DHT22;30591;48.228;16.398;2023-04-23T13:19:32;23.70;85.50
44855;DHT22;30591;48.228;16.398;2023-04-23T13:22:02;23.60;79.30
44855;DHT22;30591;48.228;16.398;2023-04-23T13:24:31;23.80;78.20
44855;DHT22;30591;48.228;16.398;2023-04-23T13:26:58;24.30;80.60
44855;DHT22;30591;48.228;16.398;2023-04-23T13:29:27;24.70;78.10
44855;DHT22;30591;48.228;16.398;2023-04-23T13:31:55;24.90;79.60
44855;DHT22;30591;48.228;16.398;2023-04-23T13:34:24;25.30;77.20
44855;DHT22;30591;48.228;16.398;2023-04-23T13:36:51;25.80;74.40
44855;DHT22;30591;48.228;16.398;2023-04-23T13:39:19;26.50;76.00
44855;DHT22;30591;48.228;16.398;2023-04-23T13:41:47;27.20;74.20
44855;DHT22;30591;48.228;16.398;2023-04-23T13:44:32;26.80;72.70
44855;DHT22;30591;48.228;16.398;2023-04-23T13:46:59;26.50;74.20
44855;DHT22;30591;48.228;16.398;2023-04-23T13:49:27;25.10;74.90
44855;DHT22;30591;48.228;16.398;2023-04-23T13:51:54;25.50;75.60
44855;DHT22;30591;48.228;16.398;2023-04-23T13:54:25;26.20;73.50
44855;DHT22;30591;48.228;16.398;2023-04-23T13:56:55;26.00;72.30
44855;DHT22;30591;48.228;16.398;2023-04-23T13:59:23;25.90;74.60
44855;DHT22;30591;48.228;16.398;2023-04-23T14:01:51;25.00;75.20
44855;DHT22;30591;48.228;16.398;2023-04-23T14:04:20;24.90;77.90
44855;DHT22;30591;48.228;16.398;2023-04-23T14:06:50;25.20;76.20
44855;DHT22;30591;48.228;16.398;2023-04-23T14:09:17;24.70;72.70
44855;DHT22;30591;48.228;16.398;2023-04-23T14:11:45;24.30;78.20
44855;DHT22;30591;48.228;16.398;2023-04-23T14:14:12;24.50;75.30
44855;DHT22;30591;48.228;16.398;2023-04-23T14:16:39;24.40;76.90
44855;DHT22;30591;48.228;16.398;2023-04-23T14:19:07;23.90;76.80
44855;DHT22;30591;48.228;16.398;2023-04-23T14:21:34;23.50;79.30
44855;DHT22;30591;48.228;16.398;2023-04-23T14:24:21;23.70;79.50
44855;DHT22;30591;48.228;16.398;2023-04-23T14:26:48;23.30;75.60
44855;DHT22;30591;48.228;16.398;2023-04-23T14:31:55;22.80;78.50
44855;DHT22;30591;48.228;16.398;2023-04-23T14:34:22;22.50;79.70
44855;DHT22;30591;48.228;16.398;2023-04-23T14:36:50;22.30;78.60
44855;DHT22;30591;48.228;16.398;2023-04-23T14:39:21;22.60;80.40
44855;DHT22;30591;48.228;16.398;2023-04-23T14:41:49;22.60;77.80
44855;DHT22;30591;48.228;16.398;2023-04-23T14:44:17;22.70;78.00
44855;DHT22;30591;48.228;16.398;2023-04-23T14:46:45;22.50;80.10
44855;DHT22;30591;48.228;16.398;2023-04-23T14:49:16;22.70;81.20
44855;DHT22;30591;48.228;16.398;2023-04-23T14:51:48;22.70;81.00
44855;DHT22;30591;48.228;16.398;2023-04-23T14:54:16;23.00;81.20
44855;DHT22;30591;48.228;16.398;2023-04-23T14:56:44;22.80;78.70
44855;DHT22;30591;48.228;16.398;2023-04-23T14:59:12;22.20;79.20
44855;DHT22;30591;48.228;16.398;2023-04-23T15:01:39;22.00;82.00
44855;DHT22;30591;48.228;16.398;2023-04-23T15:04:07;21.80;79.40
44855;DHT22;30591;48.228;16.398;2023-04-23T15:06:36;21.70;80.40
44855;DHT22;30591;48.228;16.398;2023-04-23T15:09:04;21.90;80.00
44855;DHT22;30591;48.228;16.398;2023-04-23T15:11:32;22.20;79.80
44855;DHT22;30591;48.228;16.398;2023-04-23T15:14:07;22.20;76.90
44855;DHT22;30591;48.228;16.398;2023-04-23T15:16:37;22.20;78.20
44855;DHT22;30591;48.228;16.398;2023-04-23T15:19:07;21.90;76.50
44855;DHT22;30591;48.228;16.398;2023-04-23T15:21:39;21.90;81.10
44855;DHT22;30591;48.228;16.398;2023-04-23T15:24:09;21.90;79.70
44855;DHT22;30591;48.228;16.398;2023-04-23T15:26:36;21.80;80.30
44855;DHT22;30591;48.228;16.398;2023-04-23T15:29:05;21.70;77.30
44855;DHT22;30591;48.228;16.398;2023-04-23T15:31:36;21.60;81.80
44855;DHT22;30591;48.228;16.398;2023-04-23T15:34:04;21.50;82.70
44855;DHT22;30591;48.228;16.398;2023-04-23T15:36:33;21.30;85.70
44855;DHT22;30591;48.228;16.398;2023-04-23T15:39:01;21.30;81.10
44855;DHT22;30591;48.228;16.398;2023-04-23T15:41:29;21.20;81.60